Terminal Aerodrome Forecast
Issued by NWS

Current Version | Previous Version | Text Only | Print | Product List | Glossary On
Versions: 1 2 3 4 5 6 7 8 9 10 11 12 13 14 15 16 17 18
000
FTUS41 KPBZ 061138
TAFDUJ
TAF
KDUJ 061138Z 0612/0712 07003KT P6SM BKN050
     FM061700 13004KT P6SM -SHRA BKN040
     FM070100 21005KT P6SM BKN040=

USA.gov is the U.S. government's official web portal to all federal, state and local government web resources and services.